Time;durP1;ratioP1;P1;durP2;ratioP2;P2;SDS_P1;SDS_P2;PMS_P1;PMS_P2;Temp;Humidity;BMP_temperature;BMP_pressure;BME280_temperature;BME280_humidity;BME280_pressure;Samples;Min_cycle;Max_cycle;Signal;HPM_P1;HPM_P2
2022/12/26 00:02:08;;;;;;;;;40.33;36.33;;;;;8.63;97.13;99783.69;5054771;28;46136;-77
2022/12/26 00:04:33;;;;;;;;;40.33;36.33;;;;;8.66;96.98;99796.78;5055489;28;45288;-77
2022/12/26 00:06:58;;;;;;;;;43.33;37.67;;;;;8.68;96.82;99799.38;5053922;28;45295;-76
2022/12/26 00:09:24;;;;;;;;;45.33;38.33;;;;;8.68;96.89;99792.38;5055074;28;45561;-77
2022/12/26 00:11:50;;;;;;;;;40.67;36.00;;;;;8.69;96.80;99790.59;5054842;28;45416;-77
2022/12/26 00:14:16;;;;;;;;;46.67;40.33;;;;;8.69;96.92;99793.22;5054299;28;45290;-76
2022/12/26 00:16:43;;;;;;;;;39.67;34.33;;;;;8.71;96.62;99788.81;5054271;28;45318;-76
2022/12/26 00:19:09;;;;;;;;;37.00;32.67;;;;;8.71;96.39;99788.81;5054995;28;45522;-77
2022/12/26 00:21:35;;;;;;;;;41.67;35.00;;;;;8.71;96.57;99796.69;5054661;28;46156;-77
2022/12/26 00:24:01;;;;;;;;;40.67;36.00;;;;;8.71;96.22;99792.28;5054391;28;45450;-77
2022/12/26 00:26:29;;;;;;;;;44.67;36.00;;;;;8.70;96.13;99790.56;5054957;28;45476;-76
2022/12/26 00:28:56;;;;;;;;;39.33;35.67;;;;;8.70;96.23;99792.34;5053195;28;45319;-76
2022/12/26 00:31:31;;;;;;;;;39.33;36.00;;;;;8.71;96.03;99796.69;5054237;28;46113;-76
2022/12/26 00:33:57;;;;;;;;;38.33;34.67;;;;;8.70;95.91;99795.81;5054356;28;45584;-77
2022/12/26 00:36:27;;;;;;;;;43.33;37.00;;;;;8.70;95.69;99790.56;5054040;28;45389;-76
2022/12/26 00:38:53;;;;;;;;;48.00;40.00;;;;;8.71;95.71;99794.91;5054374;28;45404;-76
2022/12/26 00:41:19;;;;;;;;;44.00;37.67;;;;;8.69;95.60;99791.47;5054311;28;45462;-76
2022/12/26 00:43:46;;;;;;;;;46.00;38.00;;;;;8.68;95.25;99781.84;5054293;28;45817;-77
2022/12/26 00:46:12;;;;;;;;;52.67;40.33;;;;;8.68;95.17;99787.09;5053435;28;45363;-77
2022/12/26 00:48:37;;;;;;;;;45.67;38.33;;;;;8.68;94.91;99791.50;5053314;28;45554;-76
2022/12/26 00:51:03;;;;;;;;;44.67;37.00;;;;;8.65;94.68;99779.28;5054243;28;46083;-76
2022/12/26 00:53:29;;;;;;;;;44.67;37.33;;;;;8.64;94.48;99774.91;5054942;28;45426;-76
2022/12/26 00:55:55;;;;;;;;;53.67;40.00;;;;;8.61;94.74;99782.00;5054657;28;45456;-77
2022/12/26 00:58:21;;;;;;;;;49.67;40.33;;;;;8.58;94.73;99782.94;5054162;28;45540;-76
2022/12/26 01:00:47;;;;;;;;;45.67;40.00;;;;;8.57;94.89;99780.31;5052827;28;46292;-76
2022/12/26 01:03:13;;;;;;;;;52.67;40.00;;;;;8.54;94.44;99778.66;5052730;28;45672;-77
2022/12/26 01:05:44;;;;;;;;;45.33;40.00;;;;;8.51;94.50;99781.34;5052920;28;45384;-76
2022/12/26 01:08:10;;;;;;;;;43.67;39.33;;;;;8.49;94.61;99777.00;5052976;28;45474;-76
2022/12/26 01:10:35;;;;;;;;;51.00;41.00;;;;;8.46;94.46;99780.56;5053981;28;46144;-77
2022/12/26 01:13:01;;;;;;;;;52.67;39.00;;;;;8.42;94.18;99794.66;5053918;28;45478;-76
2022/12/26 01:15:26;;;;;;;;;43.33;37.33;;;;;8.39;94.30;99792.09;5054216;28;45567;-76
2022/12/26 01:17:52;;;;;;;;;45.00;37.00;;;;;8.36;94.44;99795.66;5054075;28;45587;-76
2022/12/26 01:20:17;;;;;;;;;45.33;37.00;;;;;8.33;94.43;99802.75;5052401;28;45424;-76
2022/12/26 01:22:42;;;;;;;;;44.00;37.67;;;;;8.31;94.34;99804.50;5053633;28;45400;-76
2022/12/26 01:25:10;;;;;;;;;49.00;41.00;;;;;8.27;94.27;99810.69;5054000;28;45318;-76
2022/12/26 01:27:35;;;;;;;;;38.67;34.67;;;;;8.26;95.07;99803.72;5054748;28;45511;-77
2022/12/26 01:30:01;;;;;;;;;44.67;36.67;;;;;8.25;94.75;99804.59;5056886;28;45528;-76
2022/12/26 01:32:26;;;;;;;;;41.33;36.67;;;;;8.18;94.64;99803.00;5055754;28;45470;-76
2022/12/26 01:34:54;;;;;;;;;36.00;33.33;;;;;8.10;95.93;99800.53;5057025;28;45314;-76
2022/12/26 01:37:21;;;;;;;;;38.67;34.00;;;;;8.09;96.71;99801.41;5056627;28;45428;-76
2022/12/26 01:39:47;;;;;;;;;34.67;29.00;;;;;8.12;96.65;99797.88;5056302;28;46436;-76
2022/12/26 01:42:15;;;;;;;;;38.33;34.00;;;;;8.16;97.04;99808.28;5056719;28;45398;-76
2022/12/26 01:45:14;;;;;;;;;35.00;32.33;;;;;8.17;96.46;99814.41;5056634;28;45379;-76
2022/12/26 01:47:51;;;;;;;;;38.67;35.33;;;;;8.17;96.22;99820.53;5056958;28;45499;-76
2022/12/26 01:50:31;;;;;;;;;43.00;35.00;;;;;8.17;95.93;99823.16;5057096;28;45567;-76
2022/12/26 01:53:02;;;;;;;;;39.33;34.00;;;;;8.18;95.93;99843.28;5057063;28;45374;-76
2022/12/26 01:55:30;;;;;;;;;42.33;34.33;;;;;8.18;95.63;99850.28;5057451;28;45408;-76
2022/12/26 01:58:03;;;;;;;;;45.33;36.00;;;;;8.18;95.47;99851.16;5056598;28;45403;-76
2022/12/26 02:00:28;;;;;;;;;40.67;34.33;;;;;8.18;95.42;99850.28;5057049;28;45777;-76
2022/12/26 02:05:38;;;;;;;;;40.00;35.33;;;;;8.18;95.24;99848.53;5057090;28;45369;-76
2022/12/26 02:08:04;;;;;;;;;44.33;38.00;;;;;8.18;95.24;99845.91;5057232;28;45571;-76
2022/12/26 02:10:37;;;;;;;;;37.67;34.33;;;;;8.17;95.05;99843.31;5057154;28;45879;-77
2022/12/26 02:13:04;;;;;;;;;39.00;36.33;;;;;8.15;95.40;99845.09;5056738;28;45398;-76
2022/12/26 02:15:30;;;;;;;;;44.67;37.67;;;;;8.14;95.18;99840.72;5056564;28;45388;-76
2022/12/26 02:17:55;;;;;;;;;35.33;34.00;;;;;8.11;95.35;99841.66;5056430;28;45349;-77
2022/12/26 02:20:27;;;;;;;;;38.33;34.00;;;;;8.13;95.37;99844.25;5055787;28;45339;-76
2022/12/26 02:23:17;;;;;;;;;36.67;34.33;;;;;8.12;95.28;99845.13;5055792;28;45451;-76
2022/12/26 02:26:10;;;;;;;;;44.33;38.00;;;;;8.09;94.81;99846.06;5055000;28;45418;-76
2022/12/26 02:28:47;;;;;;;;;42.67;37.67;;;;;8.04;94.42;99835.63;5056164;28;45318;-76
2022/12/26 02:31:27;;;;;;;;;40.67;37.67;;;;;7.99;94.21;99847.13;5056468;28;46261;-77
2022/12/26 02:34:18;;;;;;;;;39.67;34.67;;;;;7.91;94.22;99839.38;5044280;28;45351;-76
2022/12/26 02:37:27;;;;;;;;;40.33;36.33;;;;;7.87;93.98;99834.22;5056792;28;45374;-77
2022/12/26 02:39:53;;;;;;;;;30.33;30.33;;;;;7.82;93.98;99836.94;5055672;28;45356;-76
2022/12/26 02:42:31;;;;;;;;;6.00;4.33;;;;;7.78;93.80;99844.88;5056369;28;46604;-77
2022/12/26 02:48:14;;;;;;;;;27.00;24.67;;;;;7.70;93.35;99852.91;5056447;28;45312;-76
2022/12/26 03:14:27;;;;;;;;;35.33;34.00;;;;;7.31;93.97;99847.38;5055640;28;45421;-76
2022/12/26 03:17:19;;;;;;;;;45.00;35.00;;;;;7.29;93.94;99853.53;5055785;28;45646;-76
2022/12/26 03:20:00;;;;;;;;;39.00;32.67;;;;;7.27;93.67;99850.94;5055914;28;45357;-76
2022/12/26 03:22:49;;;;;;;;;28.33;28.00;;;;;7.24;93.58;99847.50;5056026;28;45674;-76
2022/12/26 03:28:23;;;;;;;;;31.00;30.33;;;;;7.14;93.40;99859.88;5055022;28;45765;-76
2022/12/26 03:30:49;;;;;;;;;39.00;35.00;;;;;7.10;93.75;99875.66;5055640;28;45511;-76
2022/12/26 03:36:10;;;;;;;;;34.00;29.00;;;;;7.07;94.12;99875.72;5048166;28;45514;-76
2022/12/26 03:38:55;;;;;;;;;38.00;33.33;;;;;7.07;94.02;99875.72;5055194;28;45424;-76
2022/12/26 04:19:52;;;;;;;;;34.67;30.67;;;;;7.18;96.09;99869.44;5038574;28;45507;-76
2022/12/26 04:45:20;;;;;;;;;28.67;25.33;;;;;7.33;96.36;99889.34;5042784;28;45467;-76
2022/12/26 04:50:32;;;;;;;;;30.00;29.00;;;;;7.37;96.44;99895.41;5054155;28;45436;-76
2022/12/26 04:52:57;;;;;;;;;34.67;32.00;;;;;7.39;96.43;99891.84;5054081;28;45361;-76
2022/12/26 04:55:25;;;;;;;;;34.67;29.33;;;;;7.41;96.50;99890.06;5054472;28;45506;-76
2022/12/26 04:57:50;;;;;;;;;27.33;25.67;;;;;7.44;96.37;99891.78;5054264;28;45431;-76
2022/12/26 05:00:16;;;;;;;;;31.33;28.00;;;;;7.47;96.44;99886.50;5054449;28;45322;-77
2022/12/26 05:11:22;;;;;;;;;28.33;27.33;;;;;7.57;96.29;99902.06;5057917;28;45419;-76
2022/12/26 05:13:48;;;;;;;;;31.33;29.00;;;;;7.59;95.82;99894.16;5057631;28;45511;-76
2022/12/26 05:30:05;;;;;;;;;27.00;25.00;;;;;7.46;93.54;99904.00;5057198;28;45467;-76
2022/12/26 05:35:14;;;;;;;;;20.33;19.00;;;;;7.40;93.51;99897.97;5057320;28;45467;-76
2022/12/26 05:37:40;;;;;;;;;30.00;29.33;;;;;7.36;93.52;99902.41;5055973;28;45452;-76
2022/12/26 05:40:06;;;;;;;;;32.33;28.67;;;;;7.33;93.17;99895.44;5052532;28;47869;-76
2022/12/26 05:42:31;;;;;;;;;39.33;32.33;;;;;7.26;92.84;99903.41;5047940;28;45472;-76
2022/12/26 05:44:56;;;;;;;;;31.67;30.00;;;;;7.19;92.84;99897.41;5057470;28;45697;-76
2022/12/26 05:47:22;;;;;;;;;32.00;28.67;;;;;7.14;92.72;99901.84;5057335;28;45640;-76
2022/12/26 05:49:47;;;;;;;;;36.33;33.00;;;;;7.11;92.82;99908.88;5056717;28;45592;-76
2022/12/26 05:52:13;;;;;;;;;34.00;31.00;;;;;7.08;92.62;99912.41;5056948;28;45445;-76
2022/12/26 05:54:38;;;;;;;;;32.67;31.00;;;;;7.03;92.55;99916.84;5056214;28;45403;-76
2022/12/26 05:57:03;;;;;;;;;33.33;30.33;;;;;7.00;93.00;99919.50;5054866;28;45452;-76
2022/12/26 05:59:29;;;;;;;;;36.00;31.00;;;;;6.97;92.90;99922.16;5056429;28;45428;-76
2022/12/26 06:01:54;;;;;;;;;31.67;28.67;;;;;6.93;92.91;99908.22;5056525;28;45374;-76
2022/12/26 06:04:20;;;;;;;;;31.67;28.00;;;;;6.91;92.98;99907.38;5056712;28;45408;-76
2022/12/26 06:06:45;;;;;;;;;37.00;36.00;;;;;6.90;93.16;99916.13;5055818;28;46096;-76
2022/12/26 06:09:11;;;;;;;;;36.33;33.67;;;;;6.90;93.18;99916.13;5056458;28;46137;-76
2022/12/26 06:11:36;;;;;;;;;32.33;30.67;;;;;6.89;93.42;99921.38;5056733;28;45321;-76
2022/12/26 06:14:03;;;;;;;;;32.67;28.33;;;;;6.89;93.30;99924.00;5055397;28;45512;-76
2022/12/26 06:16:29;;;;;;;;;37.67;33.33;;;;;6.88;93.33;99922.25;5055370;28;45461;-76
2022/12/26 06:18:55;;;;;;;;;36.00;33.00;;;;;6.87;93.09;99923.19;5056463;28;45392;-76
2022/12/26 06:21:20;;;;;;;;;39.33;33.67;;;;;6.85;93.16;99928.44;5055024;28;45415;-76
2022/12/26 06:23:47;;;;;;;;;34.67;32.00;;;;;6.83;92.98;99922.34;5055603;28;45469;-76
2022/12/26 06:26:13;;;;;;;;;37.67;33.67;;;;;6.79;93.13;99920.63;5056507;28;45423;-76
2022/12/26 06:28:40;;;;;;;;;33.00;30.33;;;;;6.77;93.38;99921.53;5056241;28;45391;-76
2022/12/26 06:31:09;;;;;;;;;36.00;31.33;;;;;6.73;93.59;99927.69;5056598;28;45375;-76
2022/12/26 06:33:35;;;;;;;;;40.33;37.33;;;;;6.71;93.31;99926.84;5056678;28;45409;-76
2022/12/26 06:36:10;;;;;;;;;33.33;28.67;;;;;6.68;93.09;99935.63;5055263;28;45309;-76
2022/12/26 06:38:36;;;;;;;;;39.33;35.67;;;;;6.64;92.99;99936.53;5056482;28;46170;-77
2022/12/26 06:41:04;;;;;;;;;31.33;30.00;;;;;6.61;93.17;99944.44;5056486;28;45377;-76
2022/12/26 06:43:29;;;;;;;;;32.00;27.00;;;;;6.59;93.65;99951.44;5056218;28;45356;-77
2022/12/26 06:45:59;;;;;;;;;34.33;33.00;;;;;6.59;92.85;99944.44;5056100;28;45476;-76
2022/12/26 06:48:25;;;;;;;;;35.67;29.00;;;;;6.58;92.85;99953.19;5054497;28;49195;-76
2022/12/26 06:50:53;;;;;;;;;31.33;27.67;;;;;6.54;92.95;99950.59;5056295;28;45467;-76
2022/12/26 06:53:18;;;;;;;;;25.67;21.67;;;;;6.51;93.27;99953.28;5056216;28;45455;-76
2022/12/26 06:55:44;;;;;;;;;32.67;30.33;;;;;6.49;93.39;99953.28;5054740;28;45455;-76
2022/12/26 06:58:09;;;;;;;;;32.00;31.00;;;;;6.47;93.56;99962.91;5056078;28;45395;-76
2022/12/26 07:00:35;;;;;;;;;33.00;31.00;;;;;6.45;93.62;99964.69;5052011;28;45361;-76
2022/12/26 07:03:00;;;;;;;;;34.67;32.33;;;;;6.45;93.76;99969.91;5056204;28;45402;-77
2022/12/26 07:05:26;;;;;;;;;31.00;29.33;;;;;6.44;94.39;99976.03;5055845;28;45318;-77
2022/12/26 07:07:51;;;;;;;;;27.67;27.67;;;;;6.46;94.47;99976.03;5055956;28;45363;-76
2022/12/26 07:10:18;;;;;;;;;33.33;29.00;;;;;6.46;94.27;99976.88;5055851;28;45396;-76
2022/12/26 07:12:44;;;;;;;;;31.00;30.33;;;;;6.45;94.69;99976.91;5055345;28;45514;-76
2022/12/26 07:15:10;;;;;;;;;31.67;28.33;;;;;6.46;94.44;99979.50;5055687;28;45416;-76
2022/12/26 07:17:36;;;;;;;;;30.33;29.67;;;;;6.48;94.37;99987.34;5055775;28;46623;-76
2022/12/26 07:20:06;;;;;;;;;30.00;28.00;;;;;6.48;94.30;99996.09;5055411;28;45447;-76
2022/12/26 07:22:31;;;;;;;;;32.00;29.00;;;;;6.49;94.13;99983.84;5055416;28;45393;-76
2022/12/26 07:24:57;;;;;;;;;29.33;26.67;;;;;6.51;94.62;99990.81;5053600;28;45337;-75
2022/12/26 07:27:23;;;;;;;;;32.67;29.33;;;;;6.53;95.03;99996.91;5054244;28;46396;-74
2022/12/26 07:29:48;;;;;;;;;31.00;30.33;;;;;6.56;95.23;100003.84;5055027;28;45394;-74
2022/12/26 07:32:14;;;;;;;;;28.33;28.33;;;;;6.57;95.62;99995.97;5054827;28;45374;-74
2022/12/26 07:34:40;;;;;;;;;27.33;25.33;;;;;6.60;96.33;100005.56;5055452;28;45398;-74
2022/12/26 07:37:06;;;;;;;;;30.67;27.33;;;;;6.65;96.01;100014.25;5055175;28;46101;-75
2022/12/26 07:39:31;;;;;;;;;25.33;23.33;;;;;6.70;96.23;100022.94;5053831;28;45386;-75
2022/12/26 07:41:57;;;;;;;;;32.33;29.33;;;;;6.75;96.12;100020.25;5054084;28;45385;-74
2022/12/26 07:44:24;;;;;;;;;31.33;27.33;;;;;6.80;96.05;100018.47;5054940;28;45433;-76
2022/12/26 07:46:49;;;;;;;;;25.33;24.33;;;;;6.82;95.31;100007.09;5055206;28;45701;-76
2022/12/26 07:49:15;;;;;;;;;28.00;28.00;;;;;6.86;94.82;100016.66;5055489;28;45395;-77
2022/12/26 07:51:41;;;;;;;;;28.67;26.67;;;;;6.85;94.25;100017.53;5053696;28;45799;-76
2022/12/26 07:54:07;;;;;;;;;30.67;29.33;;;;;6.87;93.85;100028.00;5055064;28;45297;-74
2022/12/26 07:56:33;;;;;;;;;27.00;24.33;;;;;6.85;93.42;100029.78;5055175;28;46194;-74
2022/12/26 07:58:58;;;;;;;;;32.33;25.67;;;;;6.81;92.83;100025.44;5054742;28;45402;-76
2022/12/26 08:01:24;;;;;;;;;29.33;28.67;;;;;6.76;92.39;100035.97;5055220;28;45422;-74
2022/12/26 08:03:50;;;;;;;;;30.00;27.00;;;;;6.74;92.32;100035.09;5054711;28;45410;-74
2022/12/26 08:06:17;;;;;;;;;24.67;23.67;;;;;6.73;92.35;100046.47;5054683;28;46700;-74
2022/12/26 08:08:43;;;;;;;;;34.00;27.67;;;;;6.73;92.16;100056.94;5054702;28;45357;-77
2022/12/26 08:11:14;;;;;;;;;31.00;27.67;;;;;6.74;92.38;100061.31;5054897;28;45581;-74
2022/12/26 08:13:40;;;;;;;;;32.67;29.33;;;;;6.76;92.47;100059.56;5054156;28;45466;-74
2022/12/26 08:16:07;;;;;;;;;23.00;21.33;;;;;6.79;92.49;100063.91;5054538;28;45423;-74
2022/12/26 08:18:33;;;;;;;;;35.67;29.33;;;;;6.80;92.26;100060.41;5053265;28;45653;-74
2022/12/26 08:20:59;;;;;;;;;39.67;34.67;;;;;6.84;92.59;100065.59;5053719;28;45356;-74
2022/12/26 08:23:24;;;;;;;;;48.67;41.00;;;;;6.87;92.81;100067.34;5054341;28;45335;-74
2022/12/26 08:25:50;;;;;;;;;49.00;39.00;;;;;6.95;92.85;100070.72;5054258;28;46297;-77
2022/12/26 08:28:15;;;;;;;;;32.67;31.33;;;;;7.02;92.55;100077.66;5053744;28;45558;-77
2022/12/26 08:30:41;;;;;;;;;29.33;28.67;;;;;7.09;92.45;100073.19;5053110;28;45506;-76
2022/12/26 08:33:08;;;;;;;;;30.33;28.00;;;;;7.16;91.99;100081.00;5054196;28;45321;-75
2022/12/26 08:35:38;;;;;;;;;30.67;30.33;;;;;7.23;91.71;100085.25;5054036;28;46125;-76
2022/12/26 08:38:04;;;;;;;;;36.67;30.00;;;;;7.29;91.09;100095.69;5053034;28;45342;-75
2022/12/26 08:40:30;;;;;;;;;35.67;33.33;;;;;7.32;90.80;100094.81;5054159;28;45274;-75
2022/12/26 08:42:55;;;;;;;;;34.00;30.67;;;;;7.31;91.05;100082.56;5053425;28;45463;-75
2022/12/26 08:45:21;;;;;;;;;38.00;33.33;;;;;7.34;91.81;100086.03;5054234;28;45829;-76
2022/12/26 08:47:47;;;;;;;;;31.00;30.00;;;;;7.36;92.13;100099.13;5054254;28;45598;-75
2022/12/26 08:50:12;;;;;;;;;37.00;31.33;;;;;7.41;92.33;100094.69;5052525;28;45384;-76
2022/12/26 08:52:37;;;;;;;;;38.00;34.33;;;;;7.52;92.61;100092.81;5053662;28;45392;-75
2022/12/26 08:55:03;;;;;;;;;36.00;32.33;;;;;7.64;92.40;100087.41;5053759;28;45791;-75
2022/12/26 08:57:30;;;;;;;;;32.67;29.33;;;;;7.76;92.29;100093.38;5053498;28;45409;-76
2022/12/26 08:59:55;;;;;;;;;41.67;36.67;;;;;7.88;92.25;100106.34;5054176;28;45500;-76
2022/12/26 09:02:21;;;;;;;;;29.33;27.67;;;;;7.99;92.03;100107.94;5053786;28;45534;-75
2022/12/26 09:04:46;;;;;;;;;26.00;25.67;;;;;8.12;91.78;100111.25;5052203;28;45596;-75
2022/12/26 09:07:11;;;;;;;;;29.33;27.33;;;;;8.23;91.18;100121.59;5054177;28;45505;-75
2022/12/26 09:09:37;;;;;;;;;24.00;24.00;;;;;8.31;90.84;100120.59;5054223;28;45418;-77
2022/12/26 09:12:03;;;;;;;;;23.33;21.33;;;;;8.42;90.79;100130.97;5053090;28;45338;-76
2022/12/26 09:14:28;;;;;;;;;25.00;24.00;;;;;8.50;90.40;100139.63;5053487;28;45464;-76
2022/12/26 09:16:53;;;;;;;;;31.33;26.67;;;;;8.57;89.92;100132.50;5053637;28;45499;-76
2022/12/26 09:19:20;;;;;;;;;32.67;28.33;;;;;8.63;89.75;100146.41;5053429;28;46056;-76
2022/12/26 09:21:47;;;;;;;;;25.00;25.00;;;;;8.65;89.31;100144.66;5053464;28;45448;-76
2022/12/26 09:24:15;;;;;;;;;25.00;21.33;;;;;8.71;89.48;100154.19;5051966;28;48177;-76
2022/12/26 09:26:42;;;;;;;;;29.33;27.67;;;;;8.77;89.80;100153.22;5053045;28;45444;-76
2022/12/26 09:29:10;;;;;;;;;32.33;27.33;;;;;8.82;90.08;100156.66;5053292;28;45422;-76
2022/12/26 09:31:35;;;;;;;;;31.67;26.67;;;;;8.92;90.16;100155.59;5053269;28;45925;-76
2022/12/26 09:34:05;;;;;;;;;30.00;28.33;;;;;9.03;89.96;100159.78;5053408;28;46129;-76
2022/12/26 09:36:34;;;;;;;;;30.67;28.67;;;;;9.18;89.64;100165.69;5053721;28;45419;-76
2022/12/26 09:39:00;;;;;;;;;29.33;27.67;;;;;9.31;89.48;100167.19;5051404;28;45400;-76
2022/12/26 09:41:44;;;;;;;;;28.67;28.00;;;;;9.41;88.90;100174.00;5051637;28;45383;-75
2022/12/26 09:44:12;;;;;;;;;30.33;27.33;;;;;9.52;88.85;100182.59;5052992;28;46620;-74
2022/12/26 09:46:40;;;;;;;;;31.00;29.67;;;;;9.63;88.36;100171.84;5053266;28;45378;-75
2022/12/26 09:49:14;;;;;;;;;29.00;26.00;;;;;9.72;88.48;100171.66;5055755;28;45475;-75
2022/12/26 09:51:43;;;;;;;;;33.00;30.33;;;;;9.80;88.00;100180.28;5056308;28;45528;-75
2022/12/26 09:54:18;;;;;;;;;32.67;29.00;;;;;9.90;87.53;100181.81;5056219;28;46309;-74
2022/12/26 09:56:45;;;;;;;;;27.67;27.33;;;;;10.00;87.44;100182.50;5055697;28;45461;-75
2022/12/26 09:59:18;;;;;;;;;25.33;24.00;;;;;10.07;86.93;100187.59;5056100;28;45371;-75
2022/12/26 10:01:47;;;;;;;;;33.67;32.00;;;;;10.13;86.35;100179.59;5054682;28;45388;-75
2022/12/26 10:04:25;;;;;;;;;33.67;29.33;;;;;10.20;86.78;100174.22;5056215;28;46160;-75
2022/12/26 10:07:01;;;;;;;;;25.50;21.00;;;;;10.26;86.51;100180.22;5055189;28;46037;-75
2022/12/26 10:09:38;;;;;;;;;30.33;26.67;;;;;10.30;86.48;100173.09;5056343;28;45417;-76
2022/12/26 10:12:04;;;;;;;;;28.67;28.33;;;;;10.32;86.51;100171.31;5053713;28;45711;-76
2022/12/26 10:15:08;;;;;;;;;40.67;32.00;;;;;10.35;86.44;100174.75;5055913;28;46246;-75
2022/12/26 10:17:55;;;;;;;;;34.00;29.33;;;;;10.39;86.56;100167.66;5017936;28;45501;-75
2022/12/26 10:20:42;;;;;;;;;32.00;25.67;;;;;10.43;86.38;100174.56;5054891;28;45365;-75
2022/12/26 10:23:31;;;;;;;;;33.00;30.67;;;;;10.43;86.30;100169.28;5056401;28;45457;-75
2022/12/26 10:26:12;;;;;;;;;31.67;28.00;;;;;10.44;86.65;100161.34;5042915;28;48003;-77
2022/12/26 10:29:01;;;;;;;;;35.67;31.33;;;;;10.51;86.33;100156.81;5054883;28;45293;-76
2022/12/26 10:32:05;;;;;;;;;39.67;35.00;;;;;10.54;86.59;100150.59;5054242;28;45406;-76
2022/12/26 10:34:45;;;;;;;;;50.67;41.67;;;;;10.59;86.13;100151.34;5043698;28;45357;-76
2022/12/26 10:37:29;;;;;;;;;34.67;29.33;;;;;10.61;86.37;100144.28;5055103;28;45293;-76
2022/12/26 10:40:32;;;;;;;;;37.33;30.33;;;;;10.64;86.10;100141.56;5055365;28;45423;-77
2022/12/26 10:43:14;;;;;;;;;29.67;28.33;;;;;10.64;85.80;100139.78;5055588;28;45507;-76
2022/12/26 10:45:46;;;;;;;;;27.50;22.75;;;;;10.66;86.04;100140.63;5055700;28;45449;-76
2022/12/26 10:48:15;;;;;;;;;28.67;26.33;;;;;10.65;86.06;100138.88;5055571;28;45295;-76
2022/12/26 10:50:46;;;;;;;;;33.33;29.33;;;;;10.66;86.00;100129.22;5055482;28;45415;-76
2022/12/26 10:53:14;;;;;;;;;35.67;29.33;;;;;10.64;85.99;100125.75;5055035;27;45369;-76
2022/12/26 10:55:40;;;;;;;;;31.33;30.33;;;;;10.64;85.92;100133.66;5055343;28;45418;-77
2022/12/26 10:58:20;;;;;;;;;34.67;29.67;;;;;10.65;85.83;100130.97;5054895;28;46139;-76
2022/12/26 11:00:46;;;;;;;;;28.00;25.67;;;;;10.67;85.94;100123.91;5054752;28;45464;-76
2022/12/26 11:03:17;;;;;;;;;35.00;32.67;;;;;10.72;85.98;100127.31;5055557;28;45371;-74
2022/12/26 11:05:45;;;;;;;;;37.33;32.00;;;;;10.77;86.33;100120.13;5055134;28;45495;-74
2022/12/26 11:08:23;;;;;;;;;41.00;34.67;;;;;10.84;86.37;100120.84;5054450;28;45522;-75
2022/12/26 11:11:25;;;;;;;;;29.00;28.00;;;;;10.93;85.88;100115.31;5052942;28;45326;-75
2022/12/26 11:13:56;;;;;;;;;33.33;30.67;;;;;10.99;85.54;100116.94;5072776;27;45352;-74
2022/12/26 11:16:36;;;;;;;;;31.33;30.00;;;;;11.05;84.94;100117.66;5053525;28;45399;-77
2022/12/26 11:19:02;;;;;;;;;39.00;32.33;;;;;11.09;85.39;100113.16;5054618;28;45936;-74
2022/12/26 11:21:29;;;;;;;;;35.67;31.00;;;;;11.15;85.29;100113.00;5053072;28;45526;-75
2022/12/26 11:24:07;;;;;;;;;31.67;31.33;;;;;11.21;85.13;100114.63;5054167;28;45390;-77
2022/12/26 11:26:33;;;;;;;;;38.33;32.67;;;;;11.27;85.00;100109.16;5054289;28;45403;-74
2022/12/26 11:29:12;;;;;;;;;37.00;33.33;;;;;11.33;84.89;100101.94;5052768;28;47032;-75
2022/12/26 11:31:40;;;;;;;;;32.00;30.00;;;;;11.36;84.52;100096.59;5054509;28;45466;-75
2022/12/26 11:34:09;;;;;;;;;31.33;31.00;;;;;11.43;84.46;100089.34;5054911;28;45377;-75
2022/12/26 11:36:36;;;;;;;;;38.67;31.33;;;;;11.49;84.45;100094.47;5086894;27;45522;-75
2022/12/26 11:39:22;;;;;;;;;39.00;28.00;;;;;11.58;84.42;100085.41;5054513;28;46040;-75
2022/12/26 11:41:49;;;;;;;;;30.67;29.33;;;;;11.64;83.93;100074.66;5053178;28;45408;-75
2022/12/26 11:44:20;;;;;;;;;34.00;31.33;;;;;11.68;83.62;100063.97;5054898;28;45391;-75
2022/12/26 11:46:59;;;;;;;;;30.00;27.33;;;;;11.75;83.45;100057.59;5054870;28;45395;-75
2022/12/26 11:49:33;;;;;;;;;35.33;33.33;;;;;11.78;83.13;100051.38;5052672;28;47011;-75
2022/12/26 11:52:23;;;;;;;;;36.00;31.00;;;;;11.81;82.99;100046.88;5053986;28;45440;-75
2022/12/26 11:54:49;;;;;;;;;32.33;29.67;;;;;11.85;82.70;100051.16;5048650;28;45416;-75
2022/12/26 11:57:30;;;;;;;;;29.33;26.33;;;;;11.88;82.56;100055.50;5054283;28;45572;-75
2022/12/26 12:00:15;;;;;;;;;38.33;30.67;;;;;11.92;82.92;100051.81;5052895;28;46554;-75
2022/12/26 12:02:41;;;;;;;;;37.00;28.00;;;;;11.95;82.45;100049.09;5054151;28;45548;-75
2022/12/26 12:05:14;;;;;;;;;45.67;33.00;;;;;11.99;82.41;100047.22;5054877;28;45357;-75
2022/12/26 12:07:59;;;;;;;;;36.00;31.67;;;;;12.02;82.33;100049.78;5054450;28;45480;-75
2022/12/26 12:10:46;;;;;;;;;39.00;33.00;;;;;12.05;82.42;100033.84;5053741;28;45472;-75
2022/12/26 12:13:32;;;;;;;;;32.33;31.33;;;;;12.04;82.05;100026.81;5051424;28;45439;-75
2022/12/26 12:16:34;;;;;;;;;22.33;16.33;;;;;12.07;82.09;100031.97;5041698;28;45441;-75
2022/12/26 12:19:09;;;;;;;;;40.33;32.00;;;;;12.11;82.12;100033.63;5051447;28;46195;-75
2022/12/26 12:21:44;;;;;;;;;36.00;31.67;;;;;12.12;82.06;100017.72;5054246;28;45699;-75
2022/12/26 12:24:34;;;;;;;;;33.67;30.67;;;;;12.11;82.04;100017.75;5054245;28;45392;-75
2022/12/26 12:27:33;;;;;;;;;30.67;28.00;;;;;12.11;82.27;100023.91;5053782;28;45450;-75
2022/12/26 12:30:12;;;;;;;;;30.67;26.33;;;;;12.12;82.42;100022.13;5053747;28;45619;-75
2022/12/26 12:32:58;;;;;;;;;33.67;32.00;;;;;12.12;82.00;100015.06;5052252;28;45844;-75
2022/12/26 12:35:42;;;;;;;;;33.33;28.00;;;;;12.05;81.48;100026.78;5050048;28;45548;-75
2022/12/26 12:38:28;;;;;;;;;34.67;31.33;;;;;11.92;82.11;100021.88;5054186;28;45460;-75
2022/12/26 12:41:06;;;;;;;;;37.33;33.00;;;;;11.82;82.32;100038.03;5052529;28;46035;-76
2022/12/26 12:43:54;;;;;;;;;31.33;26.33;;;;;11.70;82.13;100011.97;5053551;28;45527;-75
2022/12/26 12:46:54;;;;;;;;;28.00;27.33;;;;;11.63;82.53;100001.63;5053677;28;45500;-77
2022/12/26 12:49:19;;;;;;;;;34.33;29.67;;;;;11.64;83.09;100006.88;5053931;28;45463;-76
2022/12/26 12:51:50;;;;;;;;;38.67;33.33;;;;;11.71;83.00;100005.78;5053554;28;45405;-75
2022/12/26 12:54:40;;;;;;;;;29.33;25.33;;;;;11.77;83.22;100018.81;5053514;28;45646;-76
2022/12/26 12:57:06;;;;;;;;;34.00;29.33;;;;;11.84;83.29;100016.84;5053006;28;45402;-75
2022/12/26 12:59:37;;;;;;;;;31.75;29.00;;;;;11.93;83.42;100023.63;5052027;28;45435;-75
2022/12/26 13:02:18;;;;;;;;;26.50;22.25;;;;;12.00;82.95;100014.59;5053525;28;45374;-76
2022/12/26 13:04:50;;;;;;;;;31.25;29.00;;;;;12.03;82.96;100023.31;5040745;28;46420;-76
2022/12/26 13:07:31;;;;;;;;;29.75;27.75;;;;;12.09;83.10;100033.66;5053265;28;45412;-76
2022/12/26 13:10:05;;;;;;;;;31.67;30.00;;;;;12.16;82.65;100037.84;5053853;28;45481;-75
2022/12/26 13:12:37;;;;;;;;;30.75;29.50;;;;;12.26;82.26;100033.13;5052866;28;45444;-76
2022/12/26 13:15:34;;;;;;;;;33.67;31.00;;;;;12.31;80.52;100030.34;5052961;28;45566;-76
2022/12/26 13:18:12;;;;;;;;;31.00;28.00;;;;;12.23;81.17;100041.19;5052596;28;45477;-76
2022/12/26 13:20:52;;;;;;;;;29.67;29.00;;;;;12.17;79.71;100041.38;5052822;28;45378;-75
2022/12/26 13:26:18;;;;;;;;;31.33;31.00;;;;;12.12;80.92;100038.84;5056466;28;45479;-75
2022/12/26 13:29:10;;;;;;;;;34.25;30.25;;;;;12.19;81.77;100043.06;5056294;28;45437;-75
2022/12/26 13:31:37;;;;;;;;;33.67;31.67;;;;;12.26;82.05;100045.47;5037891;28;45426;-76
2022/12/26 13:34:06;;;;;;;;;38.33;33.67;;;;;12.31;81.83;100036.50;5056384;28;45823;-75
2022/12/26 13:36:42;;;;;;;;;29.33;25.67;;;;;12.39;81.59;100041.53;5056788;28;46647;-75
2022/12/26 13:39:22;;;;;;;;;37.67;31.00;;;;;12.49;81.11;100032.38;5056695;28;45423;-76
2022/12/26 13:44:51;;;;;;;;;35.00;30.67;;;;;12.57;80.99;100031.19;5056592;28;45393;-76
2022/12/26 13:47:33;;;;;;;;;32.50;27.25;;;;;12.59;80.94;100020.56;5056251;28;45387;-75
2022/12/26 13:50:37;;;;;;;;;34.67;30.67;;;;;12.64;80.69;100025.72;5043000;28;45696;-75